Time;durP1;ratioP1;P1;durP2;ratioP2;P2;SDS_P1;SDS_P2;PMS_P1;PMS_P2;Temp;Humidity;BMP_temperature;BMP_pressure;BME280_temperature;BME280_humidity;BME280_pressure;Samples;Min_cycle;Max_cycle;Signal;HPM_P1;HPM_P2
2022/05/07 00:00:14;;;;;;;9.23;6.67;;;;;;;11.51;33.58;101218.75;10489578;28;20583;-86
2022/05/07 00:05:18;;;;;;;10.73;7.00;;;;;;;12.30;32.64;101216.75;10471581;28;20192;-86
2022/05/07 00:10:20;;;;;;;7.33;6.57;;;;;;;12.41;32.17;101215.00;10477800;28;20217;-87
2022/05/07 00:15:23;;;;;;;10.37;6.93;;;;;;;12.23;32.66;101215.78;10420963;28;20242;-88
2022/05/07 00:20:25;;;;;;;7.83;6.30;;;;;;;12.13;33.10;101211.44;10411136;28;20509;-86
2022/05/07 00:25:30;;;;;;;11.63;6.50;;;;;;;11.60;33.62;101210.84;10413493;28;20192;-86
2022/05/07 00:30:32;;;;;;;7.17;5.93;;;;;;;12.40;32.58;101207.63;10401020;28;20231;-85
2022/05/07 00:35:34;;;;;;;8.70;6.37;;;;;;;11.35;34.20;101210.16;10405248;28;20247;-85
2022/05/07 00:40:36;;;;;;;13.87;7.00;;;;;;;11.27;34.29;101202.59;10404595;28;20539;-85
2022/05/07 00:45:39;;;;;;;8.83;6.20;;;;;;;11.56;33.83;101204.22;10388182;28;20245;-87
2022/05/07 00:56:04;;;;;;;9.17;7.23;;;;;;;11.77;33.19;101204.78;10407214;28;20632;-85
2022/05/07 01:01:06;;;;;;;9.87;7.10;;;;;;;11.71;33.69;101199.72;10387790;28;20184;-86
2022/05/07 01:06:09;;;;;;;12.43;7.10;;;;;;;11.53;33.88;101190.69;10404398;28;20226;-86
2022/05/07 01:11:15;;;;;;;10.47;6.90;;;;;;;11.82;33.70;101196.00;10387709;28;20608;-86
2022/05/07 01:16:18;;;;;;;8.77;7.87;;;;;;;11.58;33.58;101193.28;10386079;28;20213;-86
2022/05/07 01:21:20;;;;;;;11.40;7.73;;;;;;;11.28;34.27;101192.03;10387100;28;20266;-86
2022/05/07 01:26:26;;;;;;;10.93;7.27;;;;;;;11.78;33.38;101189.34;10387113;28;20192;-86
2022/05/07 01:31:29;;;;;;;10.03;7.43;;;;;;;11.78;33.53;101177.94;10386601;28;20197;-86
2022/05/07 01:36:32;;;;;;;9.97;8.10;;;;;;;11.40;33.80;101178.53;10403114;28;20295;-86
2022/05/07 01:41:38;;;;;;;10.33;7.80;;;;;;;11.95;32.70;101170.19;10386444;28;20188;-86
2022/05/07 01:52:07;;;;;;;11.97;8.60;;;;;;;11.52;33.57;101163.34;10401720;28;20250;-85
2022/05/07 01:57:14;;;;;;;11.73;8.37;;;;;;;11.49;33.70;101172.63;10370292;28;20224;-85
2022/05/07 02:02:17;;;;;;;10.47;8.20;;;;;;;11.27;33.91;101167.53;10412503;28;20246;-86
2022/05/07 02:07:20;;;;;;;9.93;8.27;;;;;;;11.27;33.76;101167.53;10433438;28;20297;-86
2022/05/07 02:12:23;;;;;;;10.37;8.43;;;;;;;11.59;33.03;101154.16;10400331;28;20246;-85
2022/05/07 02:17:26;;;;;;;10.27;9.17;;;;;;;11.27;33.69;101156.97;10425214;28;20212;-88
2022/05/07 02:22:29;;;;;;;9.40;8.47;;;;;;;10.72;34.84;101158.59;10430813;28;20204;-85
2022/05/07 02:27:31;;;;;;;11.33;8.77;;;;;;;10.87;34.78;101164.72;10442224;28;20196;-86
2022/05/07 02:32:36;;;;;;;9.30;8.13;;;;;;;10.94;34.35;101160.09;10441026;28;20287;-86
2022/05/07 02:37:39;;;;;;;10.43;8.57;;;;;;;11.22;34.01;101162.09;10441469;28;20216;-87
2022/05/07 02:42:41;;;;;;;11.83;8.83;;;;;;;10.98;34.59;101155.28;10459613;28;20206;-85
2022/05/07 02:47:47;;;;;;;10.57;9.30;;;;;;;11.01;34.27;101153.75;10442383;28;20180;-85
2022/05/07 02:52:52;;;;;;;10.77;8.43;;;;;;;11.04;34.22;101159.56;10441687;28;20192;-85
2022/05/07 02:57:54;;;;;;;10.07;8.87;;;;;;;11.05;34.37;101149.81;10440815;28;20211;-85
2022/05/07 03:02:58;;;;;;;11.33;9.63;;;;;;;11.59;33.87;101157.84;10402616;28;20193;-85
2022/05/07 03:08:03;;;;;;;11.60;9.70;;;;;;;11.12;34.11;101155.75;10465882;28;20199;-85
2022/05/07 03:13:09;;;;;;;11.93;9.60;;;;;;;11.32;33.86;101153.03;10466665;28;20191;-85
2022/05/07 03:18:12;;;;;;;10.73;9.63;;;;;;;10.83;34.78;101156.06;10481618;28;20280;-86
2022/05/07 03:23:14;;;;;;;11.50;10.27;;;;;;;10.15;35.93;101156.00;10482739;28;20232;-85
2022/05/07 03:28:19;;;;;;;12.20;10.13;;;;;;;9.62;36.87;101155.00;10441661;28;20222;-85
2022/05/07 03:33:22;;;;;;;11.57;10.37;;;;;;;10.23;35.64;101155.03;10424049;28;20255;-86
2022/05/07 03:38:24;;;;;;;17.97;11.67;;;;;;;10.68;34.58;101151.16;10449033;28;20219;-86
2022/05/07 03:43:37;;;;;;;12.87;10.97;;;;;;;10.09;35.79;101160.25;10425023;28;20571;-85
2022/05/07 03:48:40;;;;;;;12.07;10.60;;;;;;;11.20;33.72;101153.09;10393840;28;20196;-86
2022/05/07 03:53:43;;;;;;;14.73;11.20;;;;;;;11.42;33.22;101149.63;10399704;28;20653;-85
2022/05/07 03:58:54;;;;;;;12.80;10.23;;;;;;;11.23;33.56;101155.19;10423085;28;20223;-85
2022/05/07 04:04:16;;;;;;;13.13;10.83;;;;;;;11.05;34.33;101152.66;10432250;28;20531;-86
2022/05/07 04:09:19;;;;;;;14.93;10.43;;;;;;;10.74;34.64;101155.41;10429338;28;20187;-86
2022/05/07 04:14:25;;;;;;;14.50;11.17;;;;;;;10.33;35.26;101154.53;10429707;28;20199;-86
2022/05/07 04:19:32;;;;;;;14.40;11.23;;;;;;;11.29;33.99;101153.75;10430953;28;20223;-87
2022/05/07 04:24:36;;;;;;;13.13;11.17;;;;;;;11.19;34.24;101157.16;10429874;28;20195;-86
2022/05/07 04:29:39;;;;;;;13.83;11.03;;;;;;;10.72;34.80;101152.06;10429920;28;20661;-86
2022/05/07 04:34:52;;;;;;;13.47;11.90;;;;;;;11.43;33.79;101157.81;10391130;28;20224;-85
2022/05/07 04:39:55;;;;;;;14.33;10.93;;;;;;;11.33;33.74;101158.38;10404775;28;20188;-86
2022/05/07 04:44:58;;;;;;;15.10;11.53;;;;;;;10.59;34.85;101164.69;10405427;28;20193;-86
2022/05/07 04:50:17;;;;;;;15.33;10.70;;;;;;;11.28;33.67;101169.19;10390688;28;20192;-85
2022/05/07 04:55:24;;;;;;;17.20;11.97;;;;;;;10.16;35.90;101157.66;10404322;28;20274;-86
2022/05/07 05:00:31;;;;;;;14.13;11.07;;;;;;;10.10;36.25;101169.63;10372536;28;20197;-86
2022/05/07 05:05:41;;;;;;;17.13;11.53;;;;;;;10.71;35.25;101156.94;10389137;28;20251;-86
2022/05/07 05:10:52;;;;;;;17.53;11.83;;;;;;;11.63;34.05;101155.91;10403597;28;20478;-85
2022/05/07 05:15:55;;;;;;;17.77;12.90;;;;;;;11.99;33.12;101153.97;10421421;28;20686;-86
2022/05/07 05:21:17;;;;;;;17.90;13.03;;;;;;;11.99;33.11;101171.09;10404737;28;20208;-86
2022/05/07 05:26:28;;;;;;;15.38;11.70;;;;;;;12.54;32.49;101167.97;10426436;28;20759;-83
2022/05/07 05:31:33;;;;;;;13.97;11.53;;;;;;;12.40;32.60;101176.19;10420236;28;20199;-84
2022/05/07 05:36:51;;;;;;;13.73;11.40;;;;;;;12.94;31.81;101172.53;10423625;28;20269;-85
2022/05/07 05:42:05;;;;;;;15.83;11.93;;;;;;;12.98;32.14;101173.44;10422189;28;20492;-85
2022/05/07 05:47:11;;;;;;;11.97;10.37;;;;;;;13.18;32.42;101180.81;10442529;28;20187;-85
2022/05/07 05:52:13;;;;;;;22.80;12.60;;;;;;;13.27;32.21;101189.19;10437214;28;20192;-86
2022/05/07 05:57:16;;;;;;;35.80;16.23;;;;;;;13.35;31.43;101187.28;10423045;28;20508;-86
2022/05/07 06:02:20;;;;;;;83.70;29.63;;;;;;;12.85;32.43;101197.66;10425893;28;20192;-86
2022/05/07 06:07:38;;;;;;;34.23;18.33;;;;;;;13.00;32.57;101193.06;10430624;28;20187;-86
2022/05/07 06:12:43;;;;;;;21.92;15.55;;;;;;;12.96;32.68;101195.84;10442019;28;20192;-86
2022/05/07 06:17:45;;;;;;;19.87;15.40;;;;;;;13.48;32.00;101197.34;10436743;28;20686;-88
2022/05/07 06:22:50;;;;;;;20.37;16.50;;;;;;;13.87;31.30;101210.38;10434156;28;20249;-86
2022/05/07 06:27:54;;;;;;;23.65;14.90;;;;;;;13.39;31.63;101200.44;10421550;28;20192;-79
2022/05/07 06:33:04;;;;;;;16.02;13.88;;;;;;;14.11;31.63;101202.59;10438511;28;20215;-86
2022/05/07 06:38:16;;;;;;;20.10;14.43;;;;;;;14.28;31.71;101202.06;10409598;28;20620;-86
2022/05/07 06:43:23;;;;;;;18.77;14.87;;;;;;;14.51;31.53;101202.84;10409705;28;20489;-86
2022/05/07 06:48:38;;;;;;;20.67;14.70;;;;;;;15.07;30.78;101201.19;10425683;28;20256;-86
2022/05/07 06:53:46;;;;;;;24.70;15.50;;;;;;;14.71;30.02;101202.75;10417572;28;20204;-86
2022/05/07 06:58:49;;;;;;;21.77;14.97;;;;;;;15.02;29.56;101208.09;10441235;28;20208;-86
2022/05/07 07:03:54;;;;;;;18.17;14.88;;;;;;;15.11;29.34;101208.63;10438321;28;20246;-85
2022/05/07 07:08:56;;;;;;;21.85;15.88;;;;;;;15.63;28.85;101206.78;10446873;28;20596;-90
2022/05/07 07:14:03;;;;;;;20.30;15.50;;;;;;;14.75;29.73;101213.03;10423673;28;20192;-89
2022/05/07 07:19:05;;;;;;;22.20;15.70;;;;;;;14.53;29.70;101209.03;10448510;28;20215;-88
2022/05/07 07:24:08;;;;;;;23.00;15.63;;;;;;;14.15;29.63;101218.63;10447445;28;20218;-87
2022/05/07 07:29:10;;;;;;;24.50;15.43;;;;;;;14.60;29.12;101214.84;10448093;28;20244;-89
2022/05/07 07:34:13;;;;;;;21.97;15.83;;;;;;;14.77;29.30;101213.47;10419170;28;20273;-85
2022/05/07 07:39:16;;;;;;;28.57;17.80;;;;;;;14.36;29.77;101212.44;10417603;28;20220;-85
2022/05/07 07:44:18;;;;;;;28.45;17.02;;;;;;;14.84;28.82;101207.03;10406066;28;20262;-86
2022/05/07 07:49:21;;;;;;;25.37;17.40;;;;;;;15.77;27.70;101198.31;10456001;28;20519;-86
2022/05/07 07:54:23;;;;;;;22.73;16.43;;;;;;;16.10;27.37;101205.22;10442195;28;20654;-86
2022/05/07 07:59:27;;;;;;;25.13;17.67;;;;;;;16.80;26.67;101204.88;10445807;28;20227;-85
2022/05/07 08:04:29;;;;;;;23.98;15.45;;;;;;;15.81;28.86;101204.09;10423548;28;20196;-87
2022/05/07 08:14:52;;;;;;;27.77;17.20;;;;;;;17.04;27.17;101198.47;10472492;28;20195;-86
2022/05/07 08:19:54;;;;;;;23.15;16.75;;;;;;;16.97;27.65;101209.91;10476205;28;20215;-85
2022/05/07 08:24:57;;;;;;;27.00;16.95;;;;;;;16.78;27.58;101212.31;10423908;28;20265;-86
2022/05/07 08:29:59;;;;;;;23.10;16.02;;;;;;;16.47;26.58;101205.91;10440109;28;20263;-87
2022/05/07 08:35:03;;;;;;;25.40;16.85;;;;;;;16.65;26.92;101208.94;10422964;28;20720;-86
2022/05/07 08:40:05;;;;;;;21.23;15.27;;;;;;;17.98;25.52;101200.38;10434237;28;20261;-86
2022/05/07 08:45:08;;;;;;;22.45;14.57;;;;;;;17.82;26.80;101192.16;10444548;28;20192;-85
2022/05/07 08:50:13;;;;;;;25.65;16.13;;;;;;;17.93;25.01;101192.97;10438819;28;20204;-85
2022/05/07 08:55:20;;;;;;;21.40;13.02;;;;;;;16.90;25.60;101197.56;10430368;28;20200;-88
2022/05/07 09:00:24;;;;;;;24.80;14.00;;;;;;;17.37;24.64;101193.66;10449659;28;20608;-86
2022/05/07 09:05:38;;;;;;;24.38;14.18;;;;;;;17.57;24.16;101197.00;10444675;28;20203;-88
2022/05/07 09:10:41;;;;;;;19.95;14.50;;;;;;;18.12;25.32;101188.84;10426439;28;20250;-86
2022/05/07 09:15:52;;;;;;;23.23;15.45;;;;;;;18.28;24.36;101183.50;10417417;28;20296;-87
2022/05/07 09:21:16;;;;;;;21.42;15.23;;;;;;;18.69;23.33;101183.03;10289088;28;20259;-87
2022/05/07 09:26:30;;;;;;;19.58;14.75;;;;;;;17.61;23.90;101183.44;10411091;28;20184;-87
2022/05/07 09:31:34;;;;;;;18.52;12.52;;;;;;;17.73;25.53;101189.66;10398842;28;20253;-88
2022/05/07 09:36:37;;;;;;;20.90;16.35;;;;;;;18.67;24.12;101186.31;10382476;28;20212;-90
2022/05/07 09:41:43;;;;;;;25.25;16.10;;;;;;;19.22;22.70;101182.84;10391644;28;20258;-87
2022/05/07 09:46:45;;;;;;;25.25;15.85;;;;;;;19.99;23.04;101174.94;10419731;28;20220;-87
2022/05/07 09:51:48;;;;;;;25.75;18.17;;;;;;;18.16;23.68;101176.09;10400788;28;20236;-84
2022/05/07 10:02:19;;;;;;;26.40;18.35;;;;;;;17.79;24.24;101169.91;10402311;28;20196;-84
2022/05/07 10:07:40;;;;;;;25.63;18.58;;;;;;;17.71;24.27;101179.75;10398364;28;20254;-83
2022/05/07 10:12:44;;;;;;;29.15;20.63;;;;;;;18.79;23.42;101174.34;10413685;28;20192;-85
2022/05/07 10:17:58;;;;;;;42.42;21.70;;;;;;;18.12;23.90;101177.31;10398085;28;20636;-86
2022/05/07 10:23:01;;;;;;;27.90;20.38;;;;;;;17.62;24.76;101176.44;10415726;28;20256;-86
2022/05/07 10:28:15;;;;;;;28.00;21.83;;;;;;;17.85;25.82;101162.50;10381300;28;20251;-84
2022/05/07 10:33:19;;;;;;;29.95;22.23;;;;;;;18.61;23.94;101170.66;10349247;28;20313;-84
2022/05/07 10:38:26;;;;;;;28.73;23.20;;;;;;;19.10;23.39;101163.94;10404691;28;20220;-83
2022/05/07 10:43:42;;;;;;;30.13;20.20;;;;;;;19.73;22.97;101155.31;10419413;28;20192;-85
2022/05/07 10:48:50;;;;;;;32.20;21.98;;;;;;;19.17;22.84;101161.00;10398243;28;20196;-86
2022/05/07 10:53:57;;;;;;;28.30;21.00;;;;;;;18.70;23.14;101156.63;10405090;28;20200;-84
2022/05/07 10:59:01;;;;;;;29.40;21.58;;;;;;;17.79;25.38;101152.63;10403750;28;20212;-85
2022/05/07 11:04:05;;;;;;;30.40;21.63;;;;;;;19.43;23.48;101144.38;10386988;28;20836;-87
2022/05/07 11:09:17;;;;;;;29.65;21.13;;;;;;;19.35;23.04;101140.72;10421459;28;20259;-86
2022/05/07 11:14:23;;;;;;;28.40;20.15;;;;;;;18.21;24.06;101146.03;10367121;28;20197;-85
2022/05/07 11:19:27;;;;;;;33.03;23.55;;;;;;;19.34;22.73;101133.28;10385267;28;20302;-85
2022/05/07 11:24:31;;;;;;;29.90;22.35;;;;;;;20.36;21.83;101132.91;10403539;28;20184;-85
2022/05/07 11:29:34;;;;;;;29.30;22.00;;;;;;;20.31;21.67;101131.28;10403231;28;20585;-85
2022/05/07 11:34:42;;;;;;;26.95;19.30;;;;;;;20.53;22.64;101129.00;10403931;28;20655;-85
2022/05/07 11:39:57;;;;;;;24.98;21.73;;;;;;;20.60;22.16;101126.00;10403144;28;20571;-84
2022/05/07 11:50:26;;;;;;;26.45;19.08;;;;;;;19.17;21.76;101122.63;10380212;28;20235;-84
2022/05/07 11:55:29;;;;;;;24.20;19.05;;;;;;;19.64;22.11;101123.19;10361896;28;20259;-83
2022/05/07 12:00:31;;;;;;;22.48;18.20;;;;;;;19.09;23.56;101126.81;10378568;28;20279;-84
2022/05/07 12:05:44;;;;;;;22.60;16.50;;;;;;;18.51;23.32;101125.38;10400115;28;20859;-83
2022/05/07 12:10:48;;;;;;;26.52;18.00;;;;;;;19.20;22.36;101119.72;10417766;28;20188;-84
2022/05/07 12:21:15;;;;;;;25.75;17.92;;;;;;;17.82;23.47;101122.16;10415259;28;20270;-84
2022/05/07 12:31:38;;;;;;;18.83;15.90;;;;;;;17.75;24.67;101111.47;10404340;28;20247;-86
2022/05/07 12:36:41;;;;;;;21.15;16.27;;;;;;;17.78;24.73;101110.63;10449344;28;20204;-88
2022/05/07 12:41:43;;;;;;;19.70;15.25;;;;;;;18.57;24.50;101106.41;10449201;28;20192;-88
2022/05/07 12:46:49;;;;;;;23.05;15.45;;;;;;;16.54;26.84;101122.56;10448048;28;20238;-88
2022/05/07 12:51:51;;;;;;;21.15;13.70;;;;;;;18.61;24.34;101112.16;10465598;28;20203;-87
2022/05/07 12:56:53;;;;;;;19.05;14.35;;;;;;;16.79;25.42;101121.91;10408954;28;20663;-89
2022/05/07 13:01:57;;;;;;;19.83;16.73;;;;;;;19.63;25.00;101110.81;10409343;28;20284;-90
2022/05/07 13:07:00;;;;;;;20.02;15.80;;;;;;;20.34;22.51;101109.34;10423794;28;20192;-90
2022/05/07 13:12:03;;;;;;;21.83;16.55;;;;;;;20.28;22.47;101099.53;10422491;28;20193;-91
2022/05/07 13:17:05;;;;;;;20.80;16.13;;;;;;;20.46;21.73;101105.91;10404532;28;20213;-86
2022/05/07 13:22:08;;;;;;;18.27;15.13;;;;;;;19.71;21.45;101100.81;10405989;28;20525;-86
2022/05/07 13:27:12;;;;;;;19.88;14.30;;;;;;;20.64;21.00;101094.94;10412979;28;20263;-86
2022/05/07 13:32:14;;;;;;;17.08;14.80;;;;;;;19.86;21.93;101092.88;10401518;28;20232;-89
2022/05/07 13:37:19;;;;;;;18.65;14.48;;;;;;;19.15;21.86;101096.25;10404715;28;20263;-91
2022/05/07 13:42:27;;;;;;;20.48;14.00;;;;;;;19.96;21.51;101105.59;10402829;28;20585;-87
2022/05/07 13:47:32;;;;;;;13.38;11.98;;;;;;;19.29;22.24;101092.47;10405155;28;20176;-90
2022/05/07 13:52:36;;;;;;;16.20;13.60;;;;;;;19.85;21.88;101088.34;10408813;28;20188;-89
2022/05/07 13:57:38;;;;;;;22.20;13.68;;;;;;;20.22;22.43;101091.28;10400056;28;20482;-86
2022/05/07 14:02:41;;;;;;;16.98;14.98;;;;;;;18.79;22.66;101090.69;10412551;28;20192;-87
2022/05/07 14:07:46;;;;;;;42.83;30.65;;;;;;;19.70;25.31;101089.69;10394735;28;20311;-91
2022/05/07 14:12:48;;;;;;;20.17;16.52;;;;;;;19.04;23.63;101089.72;10420588;28;20536;-91
2022/05/07 14:17:50;;;;;;;19.85;17.55;;;;;;;20.21;22.40;101088.81;10378203;28;20228;-88
2022/05/07 14:22:54;;;;;;;19.98;16.02;;;;;;;18.97;23.19;101084.00;10403252;28;20246;-86
2022/05/07 14:27:56;;;;;;;21.35;17.33;;;;;;;19.66;24.44;101071.53;10403466;28;20193;-88
2022/05/07 14:32:59;;;;;;;23.40;18.52;;;;;;;19.29;25.50;101075.16;10406212;28;20228;-88
2022/05/07 14:38:07;;;;;;;28.83;21.35;;;;;;;20.05;25.75;101074.09;10402987;28;20216;-90
2022/05/07 14:43:13;;;;;;;25.85;20.77;;;;;;;20.06;25.02;101062.09;10411266;28;20207;-87
2022/05/07 14:48:18;;;;;;;27.77;21.05;;;;;;;20.69;24.60;101062.63;10419680;28;20215;-90
2022/05/07 14:53:22;;;;;;;21.30;18.70;;;;;;;19.94;24.23;101070.50;10415287;28;20188;-92
2022/05/07 14:58:27;;;;;;;29.63;18.60;;;;;;;20.51;24.50;101064.94;10414242;28;20262;-89
2022/05/07 15:03:31;;;;;;;18.98;15.65;;;;;;;21.28;22.62;101047.78;10437670;28;20216;-91
2022/05/07 15:13:56;;;;;;;22.63;16.50;;;;;;;19.26;24.42;101044.25;10419205;28;20663;-89
2022/05/07 15:18:59;;;;;;;26.35;17.48;;;;;;;19.58;23.70;101043.97;10395354;28;20243;-93
2022/05/07 15:24:03;;;;;;;21.45;14.88;;;;;;;20.09;23.40;101046.78;10416901;28;20200;-91
2022/05/07 15:29:08;;;;;;;19.90;16.30;;;;;;;21.26;21.86;101032.91;10396392;28;20216;-92
2022/05/07 15:39:31;;;;;;;20.15;16.23;;;;;;;20.50;22.86;101048.84;10368471;28;20228;-89
2022/05/07 15:44:33;;;;;;;14.73;10.60;;;;;;;19.08;24.67;101076.09;10367509;28;20189;-88
2022/05/07 15:49:36;;;;;;;10.18;7.50;;;;;;;17.71;26.54;101087.56;10365158;28;20220;-90
2022/05/07 15:54:39;;;;;;;13.27;7.40;;;;;;;17.91;27.40;101083.06;10363312;28;20193;-90
2022/05/07 15:59:42;;;;;;;11.55;6.80;;;;;;;17.44;28.14;101095.75;10382185;28;20506;-89
2022/05/07 16:04:44;;;;;;;10.77;6.03;;;;;;;17.69;27.95;101102.41;10363913;28;20197;-92
2022/05/07 16:09:47;;;;;;;8.73;6.72;;;;;;;16.84;29.41;101118.63;10364355;28;20189;-91
2022/05/07 16:14:49;;;;;;;10.40;7.00;;;;;;;17.19;29.25;101107.25;10346253;28;20189;-89
2022/05/07 16:19:51;;;;;;;11.35;7.25;;;;;;;17.22;29.76;101106.44;10379001;28;20213;-89
2022/05/07 16:25:00;;;;;;;7.50;5.63;;;;;;;17.33;29.29;101101.50;10364377;28;20263;-87
2022/05/07 16:30:08;;;;;;;7.82;5.75;;;;;;;16.85;29.61;101108.75;10368693;28;20193;-90
2022/05/07 16:35:11;;;;;;;7.05;5.32;;;;;;;17.43;28.73;101112.25;10391567;28;20665;-88
2022/05/07 16:40:14;;;;;;;10.48;6.22;;;;;;;17.92;28.11;101104.88;10420102;28;20549;-90
2022/05/07 16:45:16;;;;;;;10.27;6.10;;;;;;;17.72;28.45;101104.44;10447565;28;20242;-92
2022/05/07 16:50:22;;;;;;;7.05;5.28;;;;;;;17.10;29.05;101132.69;10458449;28;20184;-86
2022/05/07 16:55:24;;;;;;;11.73;7.40;;;;;;;17.74;29.03;101124.22;10481228;28;20200;-88
2022/05/07 17:00:26;;;;;;;8.52;5.15;;;;;;;17.26;29.06;101136.06;10448513;28;20559;-86
2022/05/07 17:05:33;;;;;;;7.35;4.20;;;;;;;17.02;28.78;101160.63;10444108;28;20246;-88
2022/05/07 17:10:35;;;;;;;7.78;5.20;;;;;;;16.75;29.65;101174.47;10458249;28;20196;-87
2022/05/07 17:15:37;;;;;;;4.60;4.10;;;;;;;16.38;30.72;101177.53;10416521;28;20505;-87
2022/05/07 17:20:45;;;;;;;6.25;3.95;;;;;;;16.97;29.58;101168.81;10409719;28;20220;-90
2022/05/07 17:25:49;;;;;;;6.57;4.57;;;;;;;17.32;29.17;101173.88;10391551;28;20196;-84
2022/05/07 17:30:53;;;;;;;7.15;4.05;;;;;;;17.23;28.59;101188.69;10401244;28;20192;-84
2022/05/07 17:35:55;;;;;;;6.90;4.72;;;;;;;15.86;30.21;101203.75;10411943;28;20224;-84
2022/05/07 17:40:58;;;;;;;5.75;4.57;;;;;;;17.12;28.14;101202.19;10410247;28;20247;-86
2022/05/07 17:46:03;;;;;;;8.13;5.30;;;;;;;16.95;28.59;101200.88;10413748;28;20196;-88
2022/05/07 17:51:08;;;;;;;6.15;4.30;;;;;;;17.49;28.20;101195.34;10416849;28;20224;-90
2022/05/07 17:56:11;;;;;;;5.95;4.10;;;;;;;17.58;27.97;101192.88;10402198;28;20251;-87
2022/05/07 18:01:17;;;;;;;7.80;5.22;;;;;;;17.26;28.09;101196.50;10416414;28;20263;-86
2022/05/07 18:06:21;;;;;;;11.20;5.20;;;;;;;17.30;28.80;101203.13;10379748;28;20310;-87
2022/05/07 18:11:25;;;;;;;8.88;5.05;;;;;;;17.13;28.76;101209.59;10378665;28;20200;-87
2022/05/07 18:16:32;;;;;;;9.52;6.07;;;;;;;17.27;28.78;101195.28;10398234;28;20200;-88
2022/05/07 18:22:05;;;;;;;8.27;5.97;;;;;;;17.32;28.88;101196.91;10427858;28;20628;-90
2022/05/07 18:27:07;;;;;;;7.40;5.53;;;;;;;17.28;29.31;101196.09;10416348;28;20204;-90
2022/05/07 18:32:10;;;;;;;8.70;5.82;;;;;;;16.86;29.39;101185.22;10434688;28;20221;-90
2022/05/07 18:42:49;;;;;;;11.27;6.63;;;;;;;17.04;29.23;101197.63;10417227;28;20561;-91
2022/05/07 18:47:52;;;;;;;11.55;6.30;;;;;;;16.25;31.01;101212.72;10402877;28;20239;-89
2022/05/07 18:52:54;;;;;;;8.82;6.22;;;;;;;16.08;31.24;101222.84;10401888;28;20181;-91
2022/05/07 19:03:18;;;;;;;8.05;5.25;;;;;;;16.32;30.90;101232.91;10430442;28;20240;-88
2022/05/07 19:08:21;;;;;;;7.33;5.73;;;;;;;16.12;31.17;101237.25;10412962;28;20192;-92
2022/05/07 19:13:23;;;;;;;10.07;5.55;;;;;;;15.87;31.97;101237.81;10428395;28;20200;-91
2022/05/07 19:18:27;;;;;;;8.05;5.65;;;;;;;15.58;32.22;101241.59;10412173;28;20604;-90
2022/05/07 19:23:31;;;;;;;10.27;6.83;;;;;;;15.99;31.36;101243.28;10424980;28;20188;-91
2022/05/07 19:28:36;;;;;;;8.18;6.45;;;;;;;16.05;31.39;101247.44;10411452;28;20184;-89
2022/05/07 19:33:39;;;;;;;9.38;6.53;;;;;;;15.73;32.24;101245.47;10394729;28;20517;-91
2022/05/07 19:38:42;;;;;;;9.85;6.63;;;;;;;16.13;31.74;101250.41;10377683;28;20216;-89
2022/05/07 19:43:45;;;;;;;9.65;7.13;;;;;;;15.78;32.05;101262.31;10391164;28;20193;-89
2022/05/07 19:48:48;;;;;;;10.95;6.90;;;;;;;15.97;31.47;101265.81;10367739;28;20251;-89
2022/05/07 19:53:51;;;;;;;10.30;7.13;;;;;;;15.90;31.89;101274.34;10380361;28;20251;-89
2022/05/07 19:58:53;;;;;;;9.87;6.87;;;;;;;16.09;31.56;101286.88;10390782;28;20217;-90
2022/05/07 20:03:57;;;;;;;9.55;6.90;;;;;;;15.98;32.01;101286.75;10401188;28;20200;-89
2022/05/07 20:08:59;;;;;;;9.50;7.10;;;;;;;15.84;32.40;101284.56;10411103;28;20192;-90
2022/05/07 20:14:02;;;;;;;8.75;6.20;;;;;;;16.21;31.93;101289.47;10389131;28;20208;-88
2022/05/07 20:19:05;;;;;;;8.97;7.17;;;;;;;16.08;31.94;101293.84;10402307;28;20228;-89
2022/05/07 20:24:08;;;;;;;10.57;6.87;;;;;;;16.08;32.30;101305.34;10410655;28;20201;-89
2022/05/07 20:29:11;;;;;;;13.83;8.30;;;;;;;15.74;32.78;101308.25;10384805;28;20474;-88
2022/05/07 20:34:17;;;;;;;10.65;8.55;;;;;;;15.47;33.32;101315.31;10409631;28;20737;-87
2022/05/07 20:39:34;;;;;;;12.02;8.55;;;;;;;16.21;32.27;101321.91;10422491;28;20686;-86
2022/05/07 20:49:58;;;;;;;13.60;10.48;;;;;;;15.94;32.86;101326.94;10423064;28;20212;-89
2022/05/07 20:55:01;;;;;;;13.55;9.32;;;;;;;16.13;32.83;101325.13;10422894;28;20196;-86
2022/05/07 21:00:04;;;;;;;13.10;10.13;;;;;;;16.09;33.26;101319.31;10388826;28;20212;-86
2022/05/07 21:05:07;;;;;;;11.47;10.27;;;;;;;15.84;33.73;101323.94;10405314;28;20201;-86
2022/05/07 21:10:10;;;;;;;13.52;11.18;;;;;;;16.54;32.58;101318.09;10405630;28;20181;-87
2022/05/07 21:15:16;;;;;;;15.68;10.15;;;;;;;16.07;33.38;101320.94;10406201;28;20461;-87
2022/05/07 21:20:18;;;;;;;13.75;11.75;;;;;;;15.18;35.56;101320.63;10404537;28;20213;-90
2022/05/07 21:30:42;;;;;;;16.73;11.82;;;;;;;15.64;34.85;101323.28;10389743;28;20247;-87
2022/05/07 21:35:47;;;;;;;18.90;13.50;;;;;;;15.68;35.05;101321.28;10404322;28;20228;-87
2022/05/07 21:40:50;;;;;;;16.80;13.63;;;;;;;14.82;36.70;101324.97;10388083;28;20498;-88
2022/05/07 21:45:53;;;;;;;15.53;13.87;;;;;;;15.53;36.05;101319.47;10393776;28;20255;-87
2022/05/07 21:56:08;;;;;;;19.33;15.93;;;;;;;15.49;36.09;101313.66;10388981;28;20192;-86
2022/05/07 22:01:12;;;;;;;20.13;16.77;;;;;;;15.54;35.94;101321.13;10411712;28;20263;-86
2022/05/07 22:06:14;;;;;;;20.97;17.57;;;;;;;14.95;37.04;101322.75;10409037;28;20188;-87
2022/05/07 22:11:17;;;;;;;21.42;16.88;;;;;;;15.13;36.80;101323.81;10386303;28;20196;-88
2022/05/07 22:16:19;;;;;;;20.92;15.80;;;;;;;14.35;38.10;101333.16;10385738;28;20201;-86
2022/05/07 22:21:23;;;;;;;21.43;15.50;;;;;;;14.81;37.35;101339.69;10402378;28;20263;-87
2022/05/07 22:26:26;;;;;;;18.57;15.07;;;;;;;14.88;36.80;101349.25;10402438;28;20197;-87
2022/05/07 22:31:28;;;;;;;16.97;13.17;;;;;;;14.81;36.93;101348.31;10369538;28;20185;-88
2022/05/07 22:36:30;;;;;;;20.20;14.63;;;;;;;15.19;36.08;101356.72;10402378;28;20693;-86
2022/05/07 22:41:33;;;;;;;16.37;14.07;;;;;;;14.91;36.76;101353.41;10386263;28;20667;-87
2022/05/07 22:46:35;;;;;;;22.30;17.10;;;;;;;14.32;37.89;101362.63;10401933;28;20597;-88
2022/05/07 22:51:38;;;;;;;23.08;17.60;;;;;;;14.45;37.91;101366.94;10402458;28;20184;-90
2022/05/07 22:56:40;;;;;;;23.08;17.65;;;;;;;14.74;37.27;101365.38;10402268;28;20482;-89
2022/05/07 23:01:43;;;;;;;22.00;18.02;;;;;;;14.33;38.14;101373.66;10385802;28;20239;-89
2022/05/07 23:06:45;;;;;;;23.37;17.30;;;;;;;14.07;38.37;101379.28;10403141;28;20211;-90
2022/05/07 23:11:47;;;;;;;21.02;16.58;;;;;;;13.97;38.51;101388.50;10419772;28;20181;-88
2022/05/07 23:16:50;;;;;;;17.40;14.90;;;;;;;13.68;39.20;101396.47;10403412;28;20193;-88
2022/05/07 23:21:52;;;;;;;20.83;14.83;;;;;;;13.52;39.15;101393.69;10406941;28;20279;-86
2022/05/07 23:26:56;;;;;;;18.40;13.40;;;;;;;13.86;37.77;101396.88;10385639;28;20372;-84
2022/05/07 23:31:58;;;;;;;15.20;11.83;;;;;;;13.42;38.01;101411.41;10384920;28;20690;-90
2022/05/07 23:37:01;;;;;;;15.18;11.48;;;;;;;13.47;37.64;101418.88;10402781;28;20219;-87
2022/05/07 23:42:04;;;;;;;12.33;10.27;;;;;;;13.18;37.76;101421.06;10401486;28;20224;-88
2022/05/07 23:47:06;;;;;;;13.20;8.90;;;;;;;13.17;37.27;101432.88;10420572;28;20193;-88
2022/05/07 23:52:08;;;;;;;11.87;8.00;;;;;;;13.99;35.23;101429.03;10420138;28;20200;-90
2022/05/07 23:57:10;;;;;;;11.87;7.13;;;;;;;13.45;35.78;101430.69;10404134;28;20188;-89
